createdAt,value
2023-10-29T00:02:17.620Z,100213.66
2023-10-29T00:05:22.010Z,100212.78
2023-10-29T00:08:25.093Z,100214.59
2023-10-29T00:11:28.326Z,100202.13
2023-10-29T00:14:32.404Z,100198.59
2023-10-29T00:17:35.536Z,100195.94
2023-10-29T00:20:39.952Z,100195.94
2023-10-29T00:23:43.070Z,100188.91
2023-10-29T00:26:46.093Z,100189.84
2023-10-29T00:29:49.526Z,100193.38
2023-10-29T00:32:53.351Z,100198.72
2023-10-29T00:35:58.228Z,100181.88
2023-10-29T00:39:01.167Z,100190.72
2023-10-29T00:42:04.416Z,100188.91
2023-10-29T00:45:08.288Z,100181.88
2023-10-29T00:48:13.000Z,100181.88
2023-10-29T00:51:17.605Z,100181.00
2023-10-29T00:54:20.816Z,100176.53
2023-10-29T00:57:23.839Z,100170.28
2023-10-29T01:00:26.809Z,100161.53
2023-10-29T01:03:29.971Z,100169.41
2023-10-29T01:06:34.807Z,100180.16
2023-10-29T01:09:37.810Z,100173.09
2023-10-29T01:12:41.205Z,100178.44
2023-10-29T01:15:44.153Z,100172.25
2023-10-29T01:18:47.726Z,100162.47
2023-10-29T01:21:52.172Z,100157.13
2023-10-29T01:24:55.194Z,100150.09
2023-10-29T01:27:59.370Z,100137.63
2023-10-29T01:31:02.436Z,100125.19
2023-10-29T01:34:05.465Z,100134.13
2023-10-29T01:37:09.819Z,100133.16
2023-10-29T01:40:14.410Z,100126.97
2023-10-29T01:43:17.363Z,100126.13
2023-10-29T01:46:20.272Z,100128.81
2023-10-29T01:49:23.192Z,100127.94
2023-10-29T01:52:27.741Z,100126.13
2023-10-29T01:55:31.163Z,100118.16
2023-10-29T01:58:34.106Z,100119.94
2023-10-29T02:01:37.059Z,100115.56
2023-10-29T02:04:40.044Z,100115.66
2023-10-29T02:07:45.108Z,100114.72
2023-10-29T02:10:48.096Z,100111.19
2023-10-29T02:13:51.096Z,100098.00
2023-10-29T02:16:54.070Z,100090.00
2023-10-29T02:19:57.488Z,100090.00
2023-10-29T02:23:01.796Z,100090.84
2023-10-29T02:26:05.150Z,100085.50
2023-10-29T02:29:08.098Z,100082.94
2023-10-29T02:32:11.736Z,100093.59
2023-10-29T02:35:15.414Z,100104.25
2023-10-29T02:38:19.730Z,100105.19
2023-10-29T02:41:22.797Z,100107.84
2023-10-29T02:44:25.741Z,100111.38
2023-10-29T02:47:28.769Z,100109.66
2023-10-29T02:50:31.831Z,100111.47
2023-10-29T02:53:36.176Z,100102.50
2023-10-29T02:56:39.213Z,100110.50
2023-10-29T02:59:42.326Z,100102.50
2023-10-29T03:02:45.609Z,100103.47
2023-10-29T03:05:56.865Z,100099.97
2023-10-29T03:09:01.790Z,100101.69
2023-10-29T03:12:05.220Z,100100.81
2023-10-29T03:15:09.839Z,100101.75
2023-10-29T03:18:14.725Z,100099.09
2023-10-29T03:21:18.489Z,100104.53
2023-10-29T03:24:22.796Z,100113.38
2023-10-29T03:27:25.805Z,100101.84
2023-10-29T03:30:28.955Z,100100.16
2023-10-29T03:33:31.967Z,100094.84
2023-10-29T03:36:35.245Z,100101.00
2023-10-29T03:39:39.529Z,100101.00
2023-10-29T03:42:43.976Z,100094.84
2023-10-29T03:45:46.921Z,100090.34
2023-10-29T03:48:49.869Z,100101.00
2023-10-29T03:51:52.804Z,100099.28
2023-10-29T03:54:57.069Z,100093.09
2023-10-29T03:57:59.988Z,100086.84
2023-10-29T04:01:03.367Z,100069.03
2023-10-29T04:04:07.021Z,100069.03
2023-10-29T04:07:09.963Z,100068.22
2023-10-29T04:10:14.813Z,100066.31
2023-10-29T04:13:17.863Z,100065.44
2023-10-29T04:16:20.825Z,100058.41
2023-10-29T04:19:23.752Z,100043.28
2023-10-29T04:22:26.700Z,100048.59
2023-10-29T04:25:30.969Z,100043.28
2023-10-29T04:28:33.888Z,100058.41
2023-10-29T04:31:36.791Z,100038.94
2023-10-29T04:34:39.691Z,100042.41
2023-10-29T04:37:42.599Z,100026.44
2023-10-29T04:40:46.896Z,100022.84
2023-10-29T04:43:50.095Z,100029.03
2023-10-29T04:46:53.028Z,100019.22
2023-10-29T04:49:56.054Z,99997.91
2023-10-29T04:52:59.432Z,99988.13
2023-10-29T04:56:04.886Z,99987.28
2023-10-29T04:59:07.889Z,99978.44
2023-10-29T05:02:10.824Z,99976.63
2023-10-29T05:05:13.780Z,99965.13
2023-10-29T05:08:16.832Z,99968.75
2023-10-29T05:11:21.539Z,99947.44
2023-10-29T05:14:24.496Z,99948.31
2023-10-29T05:17:27.441Z,99958.94
2023-10-29T05:20:30.458Z,99953.53
2023-10-29T05:23:33.512Z,99944.66
2023-10-29T05:26:38.362Z,99942.00
2023-10-29T05:29:41.381Z,99939.28
2023-10-29T05:32:44.612Z,99934.88
2023-10-29T05:35:47.649Z,99929.56
2023-10-29T05:38:50.608Z,99931.34
2023-10-29T05:41:55.020Z,99921.56
2023-10-29T05:44:58.258Z,99925.09
2023-10-29T05:48:01.287Z,99923.38
2023-10-29T05:51:04.602Z,99923.38
2023-10-29T05:54:07.896Z,99914.44
2023-10-29T05:57:12.620Z,99919.78
2023-10-29T06:00:16.786Z,99920.63
2023-10-29T06:03:20.175Z,99927.75
2023-10-29T06:06:23.235Z,99925.09
2023-10-29T06:09:26.198Z,99912.72
2023-10-29T06:12:30.627Z,99911.78
2023-10-29T06:15:33.568Z,99910.91
2023-10-29T06:18:36.673Z,99902.94
2023-10-29T06:21:39.733Z,99903.81
2023-10-29T06:24:42.640Z,99904.72
2023-10-29T06:27:46.996Z,99912.72
2023-10-29T06:30:49.946Z,99925.09
2023-10-29T06:33:52.907Z,99914.44
2023-10-29T06:36:55.833Z,99918.91
2023-10-29T06:39:58.741Z,99909.13
2023-10-29T06:43:04.796Z,99917.09
2023-10-29T06:46:07.983Z,99906.34
2023-10-29T06:49:12.666Z,99900.16
2023-10-29T06:52:15.584Z,99914.34
2023-10-29T06:55:18.646Z,99910.81
2023-10-29T06:58:22.943Z,99909.00
2023-10-29T07:01:25.890Z,99901.03
2023-10-29T07:04:29.158Z,99897.50
2023-10-29T07:07:32.396Z,99905.50
2023-10-29T07:10:35.565Z,99908.16
2023-10-29T07:13:39.854Z,99899.34
2023-10-29T07:16:45.773Z,99900.16
2023-10-29T07:19:48.856Z,99894.84
2023-10-29T07:22:51.801Z,99887.81
2023-10-29T07:25:54.743Z,99894.84
2023-10-29T07:28:59.240Z,99895.81
2023-10-29T07:32:02.208Z,99896.69
2023-10-29T07:35:05.721Z,99899.34
2023-10-29T07:38:09.731Z,99899.34
2023-10-29T07:41:12.678Z,99887.81
2023-10-29T07:44:17.042Z,99877.19
2023-10-29T07:47:20.230Z,99874.50
2023-10-29T07:50:23.316Z,99871.84
2023-10-29T07:53:28.120Z,99867.38
2023-10-29T07:56:31.053Z,99873.53
2023-10-29T07:59:35.999Z,99874.41
2023-10-29T08:02:39.081Z,99862.88
2023-10-29T08:05:42.123Z,99869.94
2023-10-29T08:08:45.122Z,99875.28
2023-10-29T08:11:48.220Z,99871.66
2023-10-29T08:14:52.601Z,99874.31
2023-10-29T08:17:55.579Z,99879.72
2023-10-29T08:20:58.553Z,99882.38
2023-10-29T08:24:01.556Z,99885.81
2023-10-29T08:27:05.051Z,99887.66
2023-10-29T08:30:11.464Z,99888.59
2023-10-29T08:33:14.823Z,99868.22
2023-10-29T08:36:18.068Z,99861.97
2023-10-29T08:39:22.889Z,99844.19
2023-10-29T08:42:25.946Z,99832.66
2023-10-29T08:45:41.560Z,99828.22
2023-10-29T08:48:45.700Z,99829.06
2023-10-29T08:51:48.751Z,99850.38
2023-10-29T08:54:52.144Z,99853.03
2023-10-29T08:57:55.060Z,99856.63
2023-10-29T09:00:59.622Z,99859.28
2023-10-29T09:04:05.312Z,99860.16
2023-10-29T09:07:09.499Z,99860.16
2023-10-29T09:10:12.454Z,99843.31
2023-10-29T09:13:20.104Z,99836.09
2023-10-29T09:16:24.461Z,99840.56
2023-10-29T09:19:28.890Z,99829.91
2023-10-29T09:22:31.893Z,99830.75
2023-10-29T09:25:35.064Z,99820.09
2023-10-29T09:28:38.224Z,99807.78
2023-10-29T09:31:42.585Z,99809.47
2023-10-29T09:34:45.533Z,99800.59
2023-10-29T09:37:48.517Z,99813.09
2023-10-29T09:40:55.118Z,99815.75
2023-10-29T09:44:01.040Z,99820.22
2023-10-29T09:47:14.589Z,99830.75
2023-10-29T09:50:17.752Z,99838.75
2023-10-29T09:53:21.332Z,99829.06
2023-10-29T09:56:26.462Z,99836.09
2023-10-29T09:59:30.239Z,99822.03
2023-10-29T10:02:35.757Z,99813.09
2023-10-29T10:05:41.891Z,99823.75
2023-10-29T10:08:44.998Z,99834.41
2023-10-29T10:11:47.985Z,99835.22
2023-10-29T10:14:53.531Z,99829.91
2023-10-29T10:18:01.354Z,99823.75
2023-10-29T10:21:04.540Z,99830.88
2023-10-29T10:24:09.131Z,99833.53
2023-10-29T10:27:12.399Z,99834.41
2023-10-29T10:30:26.578Z,99846.72
2023-10-29T10:33:31.023Z,99845.97
2023-10-29T10:36:33.972Z,99834.41
2023-10-29T10:39:36.911Z,99829.91
2023-10-29T10:42:39.892Z,99826.41
2023-10-29T10:45:44.551Z,99824.69
2023-10-29T10:48:48.928Z,99806.91
2023-10-29T10:51:55.919Z,99828.22
2023-10-29T10:54:59.858Z,99816.69
2023-10-29T10:58:04.463Z,99822.88
2023-10-29T11:01:10.204Z,99813.09
2023-10-29T11:04:14.907Z,99798.06
2023-10-29T11:07:18.529Z,99830.00
2023-10-29T11:10:21.529Z,99827.34
2023-10-29T11:13:25.466Z,99848.66
2023-10-29T11:16:28.519Z,99855.69
2023-10-29T11:19:43.701Z,99842.38
2023-10-29T11:22:49.533Z,99845.97
2023-10-29T11:25:52.904Z,99843.31
2023-10-29T11:28:57.018Z,99850.38
2023-10-29T11:32:25.582Z,99831.72
2023-10-29T11:35:30.431Z,99850.38
2023-10-29T11:38:36.569Z,99839.72
2023-10-29T11:41:39.963Z,99845.88
2023-10-29T11:44:43.284Z,99829.06
2023-10-29T11:48:20.527Z,99810.31
2023-10-29T11:51:26.810Z,99828.97
2023-10-29T11:54:29.864Z,99823.63
2023-10-29T11:57:33.065Z,99832.50
2023-10-29T12:00:39.784Z,99832.50
2023-10-29T12:03:51.859Z,99829.81
2023-10-29T12:06:57.770Z,99818.31
2023-10-29T12:10:04.295Z,99832.50
2023-10-29T12:13:07.260Z,99817.34
2023-10-29T12:16:10.488Z,99824.50
2023-10-29T12:19:14.248Z,99827.16
2023-10-29T12:22:21.916Z,99823.41
2023-10-29T12:25:25.295Z,99806.63
2023-10-29T12:28:28.435Z,99814.59
2023-10-29T12:31:31.346Z,99814.50
2023-10-29T12:34:47.999Z,99816.28
2023-10-29T12:37:54.908Z,99819.81
2023-10-29T12:41:07.486Z,99817.16
2023-10-29T12:44:17.230Z,99812.69
2023-10-29T12:47:20.185Z,99797.66
2023-10-29T12:50:23.186Z,99795.00
2023-10-29T12:53:29.321Z,99788.81
2023-10-29T12:56:32.678Z,99789.66
2023-10-29T12:59:35.713Z,99785.19
2023-10-29T13:02:38.738Z,99789.66
2023-10-29T13:05:42.361Z,99785.19
2023-10-29T13:08:47.409Z,99784.22
2023-10-29T13:11:52.769Z,99791.38
2023-10-29T13:14:55.784Z,99795.00
2023-10-29T13:17:58.846Z,99793.19
2023-10-29T13:21:03.375Z,99809.16
2023-10-29T13:24:09.334Z,99805.63
2023-10-29T13:27:12.487Z,99815.34
2023-10-29T13:30:15.900Z,99812.69
2023-10-29T13:33:19.006Z,99812.69
2023-10-29T13:36:22.584Z,99801.19
2023-10-29T13:39:26.917Z,99803.84
2023-10-29T13:42:29.979Z,99796.72
2023-10-29T13:45:32.965Z,99796.72
2023-10-29T13:48:36.004Z,99783.41
2023-10-29T13:51:39.554Z,99786.88
2023-10-29T13:54:44.226Z,99794.06
2023-10-29T13:57:48.193Z,99803.72
2023-10-29T14:00:51.353Z,99808.19
2023-10-29T14:03:56.851Z,99808.31
2023-10-29T14:07:00.327Z,99815.34
2023-10-29T14:10:04.867Z,99808.31
2023-10-29T14:13:07.834Z,99800.31
2023-10-29T14:16:10.833Z,99795.00
2023-10-29T14:19:13.768Z,99786.06
2023-10-29T14:22:16.722Z,99784.34
2023-10-29T14:25:21.115Z,99775.41
2023-10-29T14:28:24.061Z,99768.38
2023-10-29T14:31:27.078Z,99781.69
2023-10-29T14:34:30.986Z,99766.66
2023-10-29T14:37:33.982Z,99781.69
2023-10-29T14:40:38.288Z,99774.56
2023-10-29T14:43:42.268Z,99777.22
2023-10-29T14:46:45.272Z,99780.75
2023-10-29T14:49:48.336Z,99776.34
2023-10-29T14:52:51.255Z,99774.56
2023-10-29T14:55:55.569Z,99787.75
2023-10-29T14:58:58.488Z,99790.41
2023-10-29T15:02:01.458Z,99803.72
2023-10-29T15:05:05.455Z,99798.41
2023-10-29T15:08:08.762Z,99782.44
2023-10-29T15:11:19.699Z,99786.88
2023-10-29T15:14:29.328Z,99780.75
2023-10-29T15:17:32.349Z,99782.44
2023-10-29T15:20:35.823Z,99772.75
2023-10-29T15:23:40.511Z,99784.34
2023-10-29T15:26:44.866Z,99790.53
2023-10-29T15:29:48.120Z,99776.34
2023-10-29T15:32:54.435Z,99778.06
2023-10-29T15:36:05.067Z,99770.09
2023-10-29T15:39:08.122Z,99771.78
2023-10-29T15:42:12.654Z,99780.75
2023-10-29T15:45:16.177Z,99787.75
2023-10-29T15:48:19.232Z,99788.72
2023-10-29T15:51:25.637Z,99789.66
2023-10-29T15:54:29.511Z,99791.38
2023-10-29T15:57:33.801Z,99793.19
2023-10-29T16:00:38.042Z,99805.63
2023-10-29T16:03:41.004Z,99809.28
2023-10-29T16:06:44.715Z,99814.59
2023-10-29T16:09:47.728Z,99818.09
2023-10-29T16:12:52.091Z,99821.63
2023-10-29T16:15:55.289Z,99835.78
2023-10-29T16:18:58.232Z,99837.59
2023-10-29T16:22:01.170Z,99842.91
2023-10-29T16:25:04.945Z,99844.66
2023-10-29T16:28:09.266Z,99850.91
2023-10-29T16:31:12.170Z,99847.38
2023-10-29T16:34:15.224Z,99838.56
2023-10-29T16:37:18.287Z,99832.38
2023-10-29T16:40:21.211Z,99819.94
2023-10-29T16:43:25.532Z,99787.97
2023-10-29T16:46:30.944Z,99772.81
2023-10-29T16:49:34.209Z,99775.41
2023-10-29T16:52:37.133Z,99772.75
2023-10-29T16:55:40.153Z,99768.25
2023-10-29T16:58:44.454Z,99770.84
2023-10-29T17:01:47.387Z,99754.94
2023-10-29T17:04:52.394Z,99750.47
2023-10-29T17:07:55.331Z,99766.44
2023-10-29T17:10:59.494Z,99772.63
2023-10-29T17:14:05.324Z,99762.84
2023-10-29T17:17:11.971Z,99761.06
2023-10-29T17:20:15.005Z,99746.00
2023-10-29T17:23:17.912Z,99747.81
2023-10-29T17:26:21.925Z,99747.81
2023-10-29T17:29:26.350Z,99746.00
2023-10-29T17:32:29.361Z,99745.16
2023-10-29T17:35:32.545Z,99741.63
2023-10-29T17:38:36.075Z,99745.16
2023-10-29T17:41:39.043Z,99730.16
2023-10-29T17:44:43.320Z,99729.19
2023-10-29T17:47:46.273Z,99727.47
2023-10-29T17:50:57.435Z,99748.78
2023-10-29T17:54:00.459Z,99747.06
2023-10-29T17:57:03.500Z,99743.53
2023-10-29T18:00:09.754Z,99761.34
2023-10-29T18:03:12.776Z,99777.31
2023-10-29T18:06:19.668Z,99772.94
2023-10-29T18:09:24.668Z,99778.16
2023-10-29T18:12:27.679Z,99770.16
2023-10-29T18:15:32.138Z,99767.50
2023-10-29T18:18:35.178Z,99788.81
2023-10-29T18:21:38.086Z,99793.31
2023-10-29T18:24:40.966Z,99793.31
2023-10-29T18:27:43.888Z,99758.75
2023-10-29T18:30:48.458Z,99778.25
2023-10-29T18:33:52.077Z,99775.72
2023-10-29T18:36:55.020Z,99768.47
2023-10-29T18:39:57.955Z,99748.13
2023-10-29T18:43:03.369Z,99765.91
2023-10-29T18:46:12.073Z,99753.44
2023-10-29T18:49:15.107Z,99738.31
2023-10-29T18:52:19.566Z,99716.16
2023-10-29T18:55:22.782Z,99736.53
2023-10-29T18:58:25.797Z,99756.97
2023-10-29T19:01:30.162Z,99764.94
2023-10-29T19:04:33.179Z,99768.59
2023-10-29T19:07:36.104Z,99757.81
2023-10-29T19:10:38.994Z,99779.13
2023-10-29T19:13:41.964Z,99779.22
2023-10-29T19:16:46.301Z,99779.22
2023-10-29T19:19:50.005Z,99769.34
2023-10-29T19:22:53.169Z,99761.34
2023-10-29T19:25:58.289Z,99755.16
2023-10-29T19:29:01.369Z,99763.16
2023-10-29T19:32:06.455Z,99737.38
2023-10-29T19:35:10.852Z,99740.03
2023-10-29T19:38:13.781Z,99756.03
2023-10-29T19:41:16.874Z,99777.31
2023-10-29T19:44:20.583Z,99830.56
2023-10-29T19:47:26.980Z,99845.59
2023-10-29T19:50:29.957Z,99834.19
2023-10-29T19:53:34.127Z,99833.25
2023-10-29T19:56:37.080Z,99833.25
2023-10-29T19:59:40.012Z,99834.19
2023-10-29T20:02:44.625Z,99819.94
2023-10-29T20:05:47.585Z,99810.97
2023-10-29T20:08:50.615Z,99834.94
2023-10-29T20:11:53.527Z,99835.91
2023-10-29T20:14:56.465Z,99831.41
2023-10-29T20:18:02.298Z,99819.94
2023-10-29T20:21:06.533Z,99751.53
2023-10-29T20:24:10.460Z,99764.09
2023-10-29T20:27:13.453Z,99778.38
2023-10-29T20:30:16.516Z,99765.81
2023-10-29T20:33:21.079Z,99756.03
2023-10-29T20:36:24.082Z,99755.28
2023-10-29T20:39:27.059Z,99780.94
2023-10-29T20:42:30.083Z,99786.25
2023-10-29T20:45:33.132Z,99795.09
2023-10-29T20:48:37.776Z,99796.03
2023-10-29T20:51:40.780Z,99789.78
2023-10-29T20:54:43.945Z,99796.91
2023-10-29T20:57:46.876Z,99788.06
2023-10-29T21:00:52.432Z,99802.22
2023-10-29T21:03:57.736Z,99803.09
2023-10-29T21:07:01.554Z,99829.72
2023-10-29T21:10:06.215Z,99833.31
2023-10-29T21:13:09.190Z,99837.81
2023-10-29T21:16:12.125Z,99853.69
2023-10-29T21:19:18.315Z,99869.75
2023-10-29T21:22:22.694Z,99874.97
2023-10-29T21:25:26.082Z,99879.44
2023-10-29T21:28:29.231Z,99859.94
2023-10-29T21:31:32.281Z,99870.59
2023-10-29T21:34:36.654Z,99859.94
2023-10-29T21:37:39.628Z,99872.31
2023-10-29T21:40:42.744Z,99873.25
2023-10-29T21:43:46.397Z,99869.75
2023-10-29T21:46:49.332Z,99873.25
2023-10-29T21:49:53.712Z,99886.56
2023-10-29T21:52:56.630Z,99879.56
2023-10-29T21:56:03.671Z,99886.66
2023-10-29T21:59:06.731Z,99899.97
2023-10-29T22:02:09.681Z,99909.69
2023-10-29T22:05:13.977Z,99907.03
2023-10-29T22:08:16.913Z,99911.50
2023-10-29T22:11:20.131Z,99912.38
2023-10-29T22:14:23.172Z,99912.38
2023-10-29T22:17:26.119Z,99916.81
2023-10-29T22:20:33.325Z,99924.81
2023-10-29T22:23:37.078Z,99929.28
2023-10-29T22:26:40.043Z,99931.94
2023-10-29T22:29:42.974Z,99931.06
2023-10-29T22:32:45.914Z,99932.03
2023-10-29T22:35:58.006Z,99929.28
2023-10-29T22:39:01.229Z,99930.25
2023-10-29T22:42:04.860Z,99934.69
2023-10-29T22:45:09.338Z,99928.41
2023-10-29T22:48:12.302Z,99935.56
2023-10-29T22:51:16.991Z,99932.03
2023-10-29T22:54:20.244Z,99926.72
2023-10-29T22:57:23.790Z,99940.97
2023-10-29T23:00:26.826Z,99945.44
2023-10-29T23:03:30.608Z,99943.72
2023-10-29T23:06:35.303Z,99943.72
2023-10-29T23:09:38.308Z,99949.06
2023-10-29T23:12:41.404Z,99946.41
2023-10-29T23:15:44.365Z,99941.94
2023-10-29T23:18:47.640Z,99955.25
2023-10-29T23:21:51.996Z,99960.56
2023-10-29T23:24:55.518Z,99963.22
2023-10-29T23:27:58.432Z,99972.06
2023-10-29T23:31:01.451Z,99974.81
2023-10-29T23:34:04.495Z,99962.38
2023-10-29T23:37:08.786Z,99965.97
2023-10-29T23:40:13.077Z,99970.34
2023-10-29T23:43:16.540Z,99972.16
2023-10-29T23:46:19.671Z,99971.28
2023-10-29T23:49:23.675Z,99975.78
2023-10-29T23:52:28.524Z,99974.81
2023-10-29T23:55:31.429Z,99973.13
2023-10-29T23:58:34.399Z,99975.78
